O'Brien, Oregon
Current Conditions -  °F | °C
As of 12:56 AM on Thursday 23 Oct 2014 (Local Time) from KBOK Reporting Station
Moderate Rain Moderate Rain  
Wind Chill: 15°   Ceiling: 100
Heat Index: 15°   Visibility: 1mi
Dew Point: 14°   Wind: 13mph
Humidity: 96%   Direction: 180°S
Pressure: 29.89"   Gusts: 21mph
Location:  42.07°N, 123.71°W
Report Text: KBOK 230756Z AUTO 18011G18KT 130V220 1SM RA BR OVC001 15/14 A2989 RMK AO2 T01500144 P0017 SLP120
Loading
Personal Weather Stations






























Interactive Weather Map
Tropical Storm Tracking
New forecast layout! Learn more

10-Day Weather Forecast

Advertisements
Track Severe Weather on mobile